createdAt,value
2018-06-02T00:00:22.850Z,92.80
2018-06-02T00:02:50.351Z,92.90
2018-06-02T00:05:17.894Z,92.80
2018-06-02T00:07:45.654Z,92.80
2018-06-02T00:10:13.140Z,92.80
2018-06-02T00:12:40.788Z,92.80
2018-06-02T00:15:08.291Z,92.80
2018-06-02T00:17:36.520Z,93.10
2018-06-02T00:20:04.029Z,93.10
2018-06-02T00:22:32.256Z,92.90
2018-06-02T00:24:59.741Z,92.90
2018-06-02T00:27:27.220Z,93.00
2018-06-02T00:29:55.575Z,92.90
2018-06-02T00:32:23.057Z,92.90
2018-06-02T00:34:51.318Z,93.00
2018-06-02T00:37:18.810Z,93.00
2018-06-02T00:39:46.305Z,93.10
2018-06-02T00:42:13.810Z,93.00
2018-06-02T00:44:42.056Z,93.00
2018-06-02T00:47:09.670Z,93.00
2018-06-02T00:49:37.123Z,93.10
2018-06-02T00:52:04.629Z,93.00
2018-06-02T00:54:44.049Z,93.00
2018-06-02T00:57:11.518Z,93.10
2018-06-02T00:59:39.025Z,93.10
2018-06-02T01:02:06.580Z,93.10
2018-06-02T01:04:34.812Z,93.20
2018-06-02T01:07:03.538Z,93.10
2018-06-02T01:09:31.883Z,93.50
2018-06-02T01:11:59.423Z,93.20
2018-06-02T01:14:26.905Z,93.20
2018-06-02T01:16:54.376Z,93.20
2018-06-02T01:19:21.850Z,93.20
2018-06-02T01:21:50.084Z,93.20
2018-06-02T01:24:25.323Z,93.20
2018-06-02T01:26:52.771Z,93.10
2018-06-02T01:29:20.988Z,93.20
2018-06-02T01:31:48.651Z,93.20
2018-06-02T01:34:16.139Z,93.10
2018-06-02T01:36:43.599Z,93.10
2018-06-02T01:39:11.272Z,93.20
2018-06-02T01:41:38.761Z,93.50
2018-06-02T01:44:16.331Z,93.10
2018-06-02T01:46:43.764Z,93.20
2018-06-02T01:49:11.319Z,93.20
2018-06-02T01:51:39.546Z,93.20
2018-06-02T01:54:07.053Z,93.20
2018-06-02T01:56:35.280Z,93.20
2018-06-02T01:59:02.844Z,93.20
2018-06-02T02:01:32.334Z,93.20
2018-06-02T02:03:59.856Z,93.20
2018-06-02T02:06:28.087Z,93.20
2018-06-02T02:08:55.555Z,93.20
2018-06-02T02:11:23.029Z,93.20
2018-06-02T02:13:50.501Z,93.30
2018-06-02T02:16:18.837Z,93.40
2018-06-02T02:18:46.303Z,93.40
2018-06-02T02:21:13.788Z,93.40
2018-06-02T02:23:41.269Z,93.40
2018-06-02T02:26:08.787Z,93.40
2018-06-02T02:28:36.265Z,93.40
2018-06-02T02:31:04.707Z,93.40
2018-06-02T02:33:32.160Z,93.30
2018-06-02T02:35:59.642Z,93.40
2018-06-02T02:38:27.167Z,93.30
2018-06-02T02:40:56.686Z,93.30
2018-06-02T02:43:24.167Z,93.30
2018-06-02T02:45:51.628Z,93.40
2018-06-02T02:48:19.100Z,93.30
2018-06-02T02:50:46.660Z,93.30
2018-06-02T02:53:14.897Z,93.40
2018-06-02T02:55:42.392Z,93.30
2018-06-02T02:58:10.624Z,93.70
2018-06-02T03:00:38.194Z,93.30
2018-06-02T03:03:05.657Z,93.40
2018-06-02T03:05:33.128Z,93.30
2018-06-02T03:08:00.608Z,93.40
2018-06-02T03:10:28.857Z,93.40
2018-06-02T03:12:56.340Z,93.30
2018-06-02T03:15:23.800Z,93.40
2018-06-02T03:17:52.138Z,93.40
2018-06-02T03:20:19.611Z,93.40
2018-06-02T03:22:47.192Z,93.50
2018-06-02T03:25:15.427Z,93.70
2018-06-02T03:27:42.928Z,93.40
2018-06-02T03:30:10.411Z,93.40
2018-06-02T03:32:38.060Z,93.50
2018-06-02T03:35:06.284Z,93.50
2018-06-02T03:37:40.595Z,93.40
2018-06-02T03:40:08.068Z,93.40
2018-06-02T03:42:35.545Z,93.40
2018-06-02T03:45:03.120Z,93.40
2018-06-02T03:47:30.627Z,93.40
2018-06-02T03:49:58.208Z,93.40
2018-06-02T03:52:32.480Z,93.40
2018-06-02T03:55:00.008Z,93.50
2018-06-02T03:57:27.536Z,93.40
2018-06-02T03:59:55.048Z,93.40
2018-06-02T04:02:22.547Z,93.50
2018-06-02T04:04:50.323Z,93.40
2018-06-02T04:07:17.875Z,93.40
2018-06-02T04:09:45.374Z,93.40
2018-06-02T04:12:13.689Z,93.50
2018-06-02T04:14:41.178Z,93.50
2018-06-02T04:17:08.671Z,93.40
2018-06-02T04:19:38.008Z,93.50
2018-06-02T04:22:05.495Z,93.50
2018-06-02T04:24:32.996Z,93.50
2018-06-02T04:27:01.279Z,93.50
2018-06-02T04:29:29.565Z,93.50
2018-06-02T04:31:57.902Z,93.50
2018-06-02T04:34:25.373Z,93.50
2018-06-02T04:36:52.944Z,93.50
2018-06-02T04:39:21.196Z,93.60
2018-06-02T04:41:48.744Z,93.60
2018-06-02T04:44:16.258Z,93.60
2018-06-02T04:46:43.757Z,93.50
2018-06-02T04:49:11.280Z,93.60
2018-06-02T04:51:38.952Z,93.60
2018-06-02T04:54:06.431Z,93.50
2018-06-02T04:56:33.932Z,93.50
2018-06-02T04:59:01.469Z,93.50
2018-06-02T05:01:28.972Z,93.50
2018-06-02T05:03:56.512Z,93.50
2018-06-02T05:06:24.855Z,93.60
2018-06-02T05:08:52.332Z,93.60
2018-06-02T05:11:19.859Z,93.60
2018-06-02T05:13:47.361Z,93.60
2018-06-02T05:16:14.912Z,93.60
2018-06-02T05:18:48.484Z,93.50
2018-06-02T05:21:16.173Z,93.50
2018-06-02T05:23:43.661Z,93.50
2018-06-02T05:26:11.159Z,93.50
2018-06-02T05:28:38.669Z,93.50
2018-06-02T05:33:57.496Z,93.80
2018-06-02T05:36:24.998Z,93.40
2018-06-02T05:38:52.471Z,93.40
2018-06-02T05:41:20.813Z,93.50
2018-06-02T05:43:54.333Z,93.50
2018-06-02T05:46:21.830Z,93.50
2018-06-02T05:48:49.344Z,93.50
2018-06-02T05:51:16.903Z,93.50
2018-06-02T05:53:44.478Z,93.50
2018-06-02T05:56:12.757Z,93.50
2018-06-02T05:58:40.330Z,93.50
2018-06-02T06:01:07.833Z,93.50
2018-06-02T06:03:41.233Z,93.50
2018-06-02T06:06:08.722Z,93.60
2018-06-02T06:08:36.399Z,93.60
2018-06-02T06:11:03.941Z,93.60
2018-06-02T06:13:31.429Z,93.50
2018-06-02T06:15:58.972Z,93.50
2018-06-02T06:18:30.611Z,93.50
2018-06-02T06:20:58.132Z,93.60
2018-06-02T06:23:25.641Z,93.60
2018-06-02T06:25:54.080Z,93.80
2018-06-02T06:28:21.635Z,93.70
2018-06-02T06:30:49.147Z,93.70
2018-06-02T06:33:17.485Z,93.50
2018-06-02T06:35:44.992Z,93.40
2018-06-02T06:38:12.522Z,93.50
2018-06-02T06:40:40.227Z,93.50
2018-06-02T06:43:07.800Z,93.50
2018-06-02T06:45:35.301Z,93.60
2018-06-02T06:48:02.840Z,93.70
2018-06-02T06:50:30.339Z,93.60
2018-06-02T06:52:58.637Z,93.80
2018-06-02T06:55:26.242Z,93.80
2018-06-02T06:57:53.723Z,93.80
2018-06-02T07:00:21.273Z,93.70
2018-06-02T07:02:48.926Z,93.60
2018-06-02T07:05:16.534Z,93.60
2018-06-02T07:07:44.149Z,93.70
2018-06-02T07:10:11.716Z,93.60
2018-06-02T07:12:39.243Z,93.60
2018-06-02T07:15:06.926Z,93.60
2018-06-02T07:17:34.481Z,93.70
2018-06-02T07:20:01.993Z,93.60
2018-06-02T07:22:29.596Z,93.60
2018-06-02T07:24:57.930Z,93.70
2018-06-02T07:30:23.939Z,93.60
2018-06-02T07:32:51.595Z,93.60
2018-06-02T07:35:19.141Z,93.50
2018-06-02T07:37:46.774Z,93.40
2018-06-02T07:40:14.289Z,93.30
2018-06-02T07:42:41.869Z,93.40
2018-06-02T07:45:09.501Z,93.40
2018-06-02T07:47:37.015Z,93.30
2018-06-02T07:50:04.684Z,93.10
2018-06-02T07:52:32.231Z,93.10
2018-06-02T07:57:39.192Z,92.90
2018-06-02T08:00:23.445Z,92.90
2018-06-02T08:03:05.813Z,92.90
2018-06-02T08:05:33.565Z,92.70
2018-06-02T08:08:02.860Z,92.80
2018-06-02T08:27:41.169Z,92.80
2018-06-02T08:30:08.936Z,92.60
2018-06-02T08:32:36.743Z,92.70
2018-06-02T08:35:05.404Z,92.60
2018-06-02T11:55:07.661Z,85.70
2018-06-02T11:57:47.949Z,85.70
2018-06-02T12:00:15.470Z,85.60
2018-06-02T12:02:42.965Z,85.30
2018-06-02T12:05:12.794Z,84.90
2018-06-02T12:07:40.802Z,83.60
2018-06-02T12:10:21.295Z,83.60
2018-06-02T12:12:48.844Z,84.30
2018-06-02T12:15:17.166Z,84.80
2018-06-02T12:17:51.832Z,84.80
2018-06-02T12:26:45.149Z,83.50
2018-06-02T12:49:25.834Z,83.90
2018-06-02T12:54:29.305Z,83.80
2018-06-02T12:57:10.492Z,83.00
2018-06-02T12:59:38.156Z,82.50
2018-06-02T13:02:06.601Z,82.20
2018-06-02T13:25:30.421Z,81.00
2018-06-02T13:27:57.986Z,81.80
2018-06-02T13:30:26.920Z,82.10
2018-06-02T13:50:20.845Z,80.60
2018-06-02T13:52:56.378Z,81.00
2018-06-02T14:39:05.971Z,76.00
2018-06-02T14:41:36.214Z,76.00
2018-06-02T14:44:07.332Z,77.10
2018-06-02T14:46:41.975Z,77.00
2018-06-02T14:52:20.385Z,77.30
2018-06-02T14:54:51.282Z,77.00
2018-06-02T14:57:19.880Z,76.50
2018-06-02T15:05:11.407Z,76.00
2018-06-02T15:07:56.522Z,75.70
2018-06-02T15:42:46.861Z,74.70
2018-06-02T15:45:28.046Z,74.00
2018-06-02T15:53:40.275Z,73.80
2018-06-02T16:13:31.305Z,72.90
2018-06-02T16:16:03.173Z,72.60
2018-06-02T16:35:54.620Z,74.10
2018-06-02T17:01:54.497Z,72.10
2018-06-02T17:11:49.450Z,71.80
2018-06-02T17:14:17.832Z,71.80
2018-06-02T17:16:48.146Z,71.70
2018-06-02T17:19:15.903Z,72.40
2018-06-02T17:21:45.010Z,72.60
2018-06-02T18:01:40.550Z,75.60
2018-06-02T18:04:08.093Z,75.60
2018-06-02T18:06:36.991Z,75.90
2018-06-02T18:29:32.648Z,76.70
2018-06-02T18:32:00.260Z,76.60
2018-06-02T18:35:21.535Z,76.60
2018-06-02T18:38:00.328Z,76.90
2018-06-02T18:40:30.882Z,77.20
2018-06-02T18:43:01.095Z,77.40
2018-06-02T18:45:33.880Z,77.00
2018-06-02T18:48:01.485Z,77.00
2018-06-02T18:53:31.606Z,77.50
2018-06-02T18:55:59.300Z,77.40
2018-06-02T18:58:31.434Z,77.50
2018-06-02T19:04:15.151Z,77.70
2018-06-02T19:21:25.744Z,78.20
2018-06-02T19:24:17.995Z,78.30
2018-06-02T19:44:23.681Z,79.20
2018-06-02T19:58:57.271Z,79.40
2018-06-02T20:01:25.705Z,79.50
